Time;durP1;ratioP1;P1;durP2;ratioP2;P2;SDS_P1;SDS_P2;PMS_P1;PMS_P2;Temp;Humidity;BMP_temperature;BMP_pressure;BME280_temperature;BME280_humidity;BME280_pressure;Samples;Min_cycle;Max_cycle;Signal;HPM_P1;HPM_P2
2023/12/21 00:01:41;;;;;;;2.85;2.10;;;;;;;4.87;59.21;98790.38;5105651;28;20040;-70
2023/12/21 00:04:08;;;;;;;3.58;2.10;;;;;;;4.88;59.13;98789.47;5105709;28;20111;-70
2023/12/21 00:06:34;;;;;;;3.40;2.17;;;;;;;4.88;59.19;98784.19;5105934;28;20089;-70
2023/12/21 00:09:01;;;;;;;3.22;1.98;;;;;;;4.92;58.92;98781.41;5105675;28;20044;-70
2023/12/21 00:11:29;;;;;;;2.55;1.90;;;;;;;4.90;59.00;98785.88;5105885;28;20052;-70
2023/12/21 00:13:55;;;;;;;3.75;1.83;;;;;;;4.88;59.06;98771.06;5105578;28;20107;-69
2023/12/21 00:16:23;;;;;;;2.38;1.75;;;;;;;4.75;58.94;98749.72;5105562;28;20040;-69
2023/12/21 00:18:50;;;;;;;5.68;2.22;;;;;;;4.92;58.90;98777.94;5105245;28;20350;-69
2023/12/21 00:21:16;;;;;;;5.28;2.30;;;;;;;4.90;59.06;98774.53;5105150;28;20044;-69
2023/12/21 00:23:43;;;;;;;4.25;2.70;;;;;;;4.91;59.04;98776.22;5105508;28;20050;-70
2023/12/21 00:26:10;;;;;;;2.60;1.95;;;;;;;4.91;59.13;98765.72;5107628;28;20052;-69
2023/12/21 00:28:38;;;;;;;3.80;2.30;;;;;;;4.92;59.06;98776.16;5109589;28;20111;-69
2023/12/21 00:31:04;;;;;;;2.63;2.00;;;;;;;4.91;59.19;98769.22;5109291;28;20045;-69
2023/12/21 00:33:31;;;;;;;2.97;2.00;;;;;;;4.92;59.35;98777.94;5108142;28;20085;-69
2023/12/21 00:35:58;;;;;;;4.47;2.65;;;;;;;4.96;59.07;98763.75;5109175;28;20097;-70
2023/12/21 00:38:24;;;;;;;4.45;2.25;;;;;;;4.98;59.24;98759.31;5109106;28;20036;-70
2023/12/21 00:40:52;;;;;;;2.45;1.80;;;;;;;4.83;59.13;98737.13;5108758;28;20047;-69
2023/12/21 00:43:19;;;;;;;3.00;2.10;;;;;;;4.94;59.30;98760.34;5109064;28;20055;-69
2023/12/21 00:45:47;;;;;;;3.17;1.90;;;;;;;4.92;59.29;98751.69;5109296;28;20044;-69
2023/12/21 00:48:14;;;;;;;3.67;2.00;;;;;;;4.92;59.49;98773.53;5108650;28;20039;-69
2023/12/21 00:50:41;;;;;;;4.18;2.13;;;;;;;4.75;59.40;98711.19;5108625;28;20036;-69
2023/12/21 00:53:08;;;;;;;2.80;2.03;;;;;;;4.74;59.61;98706.88;5108835;28;20069;-70
2023/12/21 00:55:34;;;;;;;2.67;1.90;;;;;;;4.97;59.50;98744.47;5108534;28;20104;-69
2023/12/21 00:58:01;;;;;;;3.38;1.98;;;;;;;4.96;59.60;98733.09;5108495;28;20040;-70
2023/12/21 01:00:28;;;;;;;3.60;2.05;;;;;;;4.79;59.50;98699.66;5108253;28;20288;-70
2023/12/21 01:02:56;;;;;;;2.53;1.85;;;;;;;4.95;59.65;98731.41;5108803;28;20089;-70
2023/12/21 01:05:22;;;;;;;4.70;1.95;;;;;;;4.95;59.72;98738.41;5108401;28;20086;-70
2023/12/21 01:07:49;;;;;;;5.53;2.00;;;;;;;4.92;59.70;98723.66;5108575;28;20043;-70
2023/12/21 01:10:16;;;;;;;2.83;1.98;;;;;;;4.94;59.87;98723.59;5108566;28;20047;-70
2023/12/21 01:12:42;;;;;;;3.10;2.13;;;;;;;4.91;59.91;98724.56;5108510;28;20039;-70
2023/12/21 01:15:10;;;;;;;2.58;1.90;;;;;;;4.90;59.94;98750.91;5108481;28;20044;-70
2023/12/21 01:17:36;;;;;;;3.50;2.08;;;;;;;4.86;60.38;98723.03;5108455;28;20110;-70
2023/12/21 01:20:06;;;;;;;3.75;2.05;;;;;;;4.87;60.33;98716.84;5108021;28;20044;-69
2023/12/21 01:22:32;;;;;;;3.35;1.92;;;;;;;4.87;60.47;98701.94;5108052;28;20047;-70
2023/12/21 01:24:59;;;;;;;2.78;2.05;;;;;;;4.88;60.53;98684.44;5108240;28;20052;-70
2023/12/21 01:27:25;;;;;;;3.55;2.10;;;;;;;4.84;60.43;98686.34;5107986;28;20054;-70
2023/12/21 01:29:52;;;;;;;3.00;2.10;;;;;;;4.89;60.49;98678.25;5107940;28;20044;-70
2023/12/21 01:32:19;;;;;;;3.15;2.20;;;;;;;4.86;60.44;98700.25;5107888;28;20060;-69
2023/12/21 01:34:45;;;;;;;3.13;1.90;;;;;;;4.85;60.65;98695.91;5108101;28;20044;-70
2023/12/21 01:37:14;;;;;;;3.78;2.20;;;;;;;4.84;60.51;98680.22;5106800;28;20078;-69
2023/12/21 01:39:40;;;;;;;2.70;1.92;;;;;;;4.82;60.58;98694.28;5107615;28;20059;-70
2023/12/21 01:42:07;;;;;;;2.50;1.83;;;;;;;4.80;60.80;98688.22;5107916;28;20093;-70
2023/12/21 01:44:33;;;;;;;4.22;2.13;;;;;;;4.78;60.84;98679.56;5107927;28;20043;-70
2023/12/21 01:47:00;;;;;;;4.22;2.67;;;;;;;4.81;60.89;98692.56;5108096;28;20108;-70
2023/12/21 01:49:27;;;;;;;3.35;2.05;;;;;;;4.81;60.87;98679.44;5107803;28;20052;-70
2023/12/21 01:51:54;;;;;;;3.05;1.90;;;;;;;4.82;60.78;98672.41;5107759;28;20040;-70
2023/12/21 01:54:22;;;;;;;2.58;1.88;;;;;;;4.82;60.70;98685.53;5107701;28;20156;-69
2023/12/21 01:56:49;;;;;;;4.35;2.10;;;;;;;4.80;60.80;98682.97;5107635;28;20070;-69
2023/12/21 01:59:16;;;;;;;2.67;2.13;;;;;;;4.81;60.80;98671.56;5107618;28;20044;-69
2023/12/21 02:01:42;;;;;;;3.25;2.00;;;;;;;4.79;60.63;98689.16;5108035;28;20044;-69
2023/12/21 02:04:09;;;;;;;4.00;1.92;;;;;;;4.76;60.66;98694.53;5107519;28;20044;-69
2023/12/21 02:06:36;;;;;;;4.78;1.80;;;;;;;4.82;60.69;98680.28;5107189;28;20465;-69
2023/12/21 02:09:03;;;;;;;4.03;2.08;;;;;;;4.81;60.38;98666.31;5107398;28;20097;-69
2023/12/21 02:11:31;;;;;;;3.40;1.80;;;;;;;4.81;60.54;98653.19;5107335;28;20036;-69
2023/12/21 02:13:57;;;;;;;3.05;1.88;;;;;;;4.86;60.25;98667.88;5107305;28;20193;-69
2023/12/21 02:16:28;;;;;;;3.67;2.00;;;;;;;4.79;60.23;98678.66;5107244;28;20063;-70
2023/12/21 02:18:55;;;;;;;2.90;1.88;;;;;;;4.84;60.22;98659.22;5107074;28;20040;-70
2023/12/21 02:21:23;;;;;;;3.60;1.92;;;;;;;4.86;60.00;98641.63;5107056;28;20040;-70
2023/12/21 02:23:52;;;;;;;3.08;2.10;;;;;;;4.82;60.01;98652.25;5107066;28;20047;-70
2023/12/21 02:26:20;;;;;;;5.22;3.20;;;;;;;4.82;59.85;98639.13;5107022;28;20044;-70
2023/12/21 02:28:47;;;;;;;2.78;2.00;;;;;;;4.84;59.53;98664.47;5106975;28;20105;-70
2023/12/21 02:31:14;;;;;;;4.47;2.00;;;;;;;4.85;59.98;98643.41;5107036;28;20059;-70
2023/12/21 02:33:40;;;;;;;3.30;1.90;;;;;;;4.84;59.60;98653.97;5106974;28;20039;-70
2023/12/21 02:36:07;;;;;;;4.45;2.00;;;;;;;4.86;59.62;98636.38;5106614;28;20212;-70
2023/12/21 02:38:34;;;;;;;2.70;1.90;;;;;;;4.87;59.60;98622.34;5106654;28;20074;-69
2023/12/21 02:41:01;;;;;;;2.95;2.33;;;;;;;4.89;59.41;98631.88;5106751;28;20044;-69
2023/12/21 02:43:28;;;;;;;3.25;2.00;;;;;;;4.88;59.43;98627.53;5106751;28;20051;-69
2023/12/21 02:45:55;;;;;;;6.03;1.90;;;;;;;4.87;59.29;98611.84;5106747;28;20044;-67
2023/12/21 02:48:22;;;;;;;2.83;1.80;;;;;;;4.85;59.16;98622.41;5105881;28;20044;-67
2023/12/21 02:50:48;;;;;;;3.58;2.17;;;;;;;4.87;58.82;98607.44;5106611;28;20032;-68
2023/12/21 02:53:15;;;;;;;2.20;1.77;;;;;;;4.87;58.90;98617.09;5106592;28;20077;-67
2023/12/21 02:55:42;;;;;;;3.55;1.92;;;;;;;4.88;58.83;98595.16;5106273;28;20043;-67
2023/12/21 02:58:08;;;;;;;2.53;1.63;;;;;;;4.87;59.00;98583.81;5106800;28;20234;-67
2023/12/21 03:00:36;;;;;;;3.63;1.88;;;;;;;4.80;58.67;98570.09;5106404;28;20044;-68
2023/12/21 03:03:03;;;;;;;3.60;2.10;;;;;;;4.91;58.47;98589.81;5106167;28;20330;-67
2023/12/21 03:05:30;;;;;;;2.30;1.60;;;;;;;4.94;58.32;98581.78;5107020;28;20040;-67
2023/12/21 03:07:56;;;;;;;4.63;1.80;;;;;;;4.93;58.46;98569.59;5106378;28;20291;-67
2023/12/21 03:10:23;;;;;;;4.10;1.92;;;;;;;4.90;58.09;98569.72;5106342;28;20048;-67
2023/12/21 03:12:49;;;;;;;2.97;1.73;;;;;;;4.92;58.36;98547.72;5106275;28;20043;-67
2023/12/21 03:15:16;;;;;;;2.72;1.75;;;;;;;4.92;58.38;98550.34;5106800;28;20043;-67
2023/12/21 03:17:44;;;;;;;2.40;1.73;;;;;;;4.71;58.34;98507.50;5106213;28;20097;-67
2023/12/21 03:20:12;;;;;;;4.68;1.80;;;;;;;4.93;58.22;98520.53;5105903;28;20050;-67
2023/12/21 03:22:39;;;;;;;2.65;1.83;;;;;;;4.91;58.27;98527.63;5106668;28;20082;-67
2023/12/21 03:25:06;;;;;;;3.28;2.55;;;;;;;4.92;58.14;98531.97;5106402;28;20362;-67
2023/12/21 03:27:32;;;;;;;4.18;1.98;;;;;;;4.95;58.22;98523.09;5106078;28;20293;-67
2023/12/21 03:29:59;;;;;;;2.95;1.90;;;;;;;4.95;58.10;98520.47;5106040;28;20044;-67
2023/12/21 03:32:27;;;;;;;3.22;1.77;;;;;;;4.97;58.06;98489.75;5106318;28;20044;-67
2023/12/21 03:34:54;;;;;;;2.50;1.80;;;;;;;4.97;58.02;98463.47;5106378;28;20192;-67
2023/12/21 03:37:21;;;;;;;2.65;1.67;;;;;;;4.94;57.81;98468.88;5106260;28;20040;-67
2023/12/21 03:39:48;;;;;;;3.13;1.63;;;;;;;4.96;57.99;98482.78;5105497;28;20067;-68
2023/12/21 03:42:14;;;;;;;2.25;1.80;;;;;;;4.97;57.95;98456.47;5105572;28;20051;-68
2023/12/21 03:44:41;;;;;;;2.63;1.90;;;;;;;4.99;57.72;98452.00;5104745;28;20047;-68
2023/12/21 03:47:08;;;;;;;2.90;1.73;;;;;;;4.97;57.85;98439.84;5105854;28;20044;-68
2023/12/21 03:49:34;;;;;;;3.10;1.90;;;;;;;4.97;57.83;98447.72;5105905;28;20182;-68
2023/12/21 03:52:02;;;;;;;2.50;1.80;;;;;;;5.00;57.63;98421.31;5105813;28;20081;-68
2023/12/21 03:54:29;;;;;;;2.65;1.70;;;;;;;4.68;57.64;98357.19;5105815;28;20040;-68
2023/12/21 03:56:55;;;;;;;4.07;1.90;;;;;;;5.01;57.71;98400.25;5105790;28;20051;-68
2023/12/21 03:59:22;;;;;;;2.47;1.80;;;;;;;5.04;57.77;98384.34;5105758;28;20054;-68
2023/12/21 04:01:49;;;;;;;6.72;1.83;;;;;;;5.03;57.82;98403.66;5109076;28;20035;-70
2023/12/21 04:04:15;;;;;;;3.47;1.67;;;;;;;5.01;57.78;98394.13;5109859;28;20105;-70
2023/12/21 04:06:43;;;;;;;2.78;1.70;;;;;;;5.03;57.73;98387.03;5109890;28;20097;-69
2023/12/21 04:09:10;;;;;;;2.60;1.80;;;;;;;5.04;57.89;98380.88;5110045;28;20039;-69
2023/12/21 04:11:36;;;;;;;3.47;1.85;;;;;;;5.05;57.90;98375.53;5109795;28;20075;-67
2023/12/21 04:14:03;;;;;;;2.78;2.13;;;;;;;5.07;57.89;98372.84;5108624;28;20078;-68
2023/12/21 04:16:30;;;;;;;2.30;1.60;;;;;;;5.06;57.63;98390.38;5109621;28;20044;-67
2023/12/21 04:18:57;;;;;;;2.20;1.60;;;;;;;5.07;57.71;98383.34;5109911;28;20048;-67
2023/12/21 04:21:23;;;;;;;2.72;1.70;;;;;;;5.08;57.88;98395.53;5109563;28;20036;-68
2023/12/21 04:23:50;;;;;;;4.35;2.45;;;;;;;5.06;57.84;98397.41;5110140;28;20040;-68
2023/12/21 04:26:22;;;;;;;2.88;1.75;;;;;;;5.06;57.96;98386.88;5109153;28;20101;-67
2023/12/21 04:28:49;;;;;;;2.78;1.75;;;;;;;5.07;58.13;98404.34;5109663;28;20089;-68
2023/12/21 04:31:20;;;;;;;3.88;2.10;;;;;;;5.09;58.21;98423.50;5109109;28;20040;-68
2023/12/21 04:33:48;;;;;;;3.30;2.45;;;;;;;5.07;58.20;98402.56;5109257;28;20063;-70
2023/12/21 04:36:15;;;;;;;2.30;1.60;;;;;;;5.12;58.34;98397.09;5109513;28;20090;-70
2023/12/21 04:38:42;;;;;;;2.80;1.70;;;;;;;5.12;58.19;98379.56;5108901;28;20052;-70
2023/12/21 04:41:08;;;;;;;2.40;1.65;;;;;;;5.11;58.26;98367.38;5109064;28;20036;-69
2023/12/21 04:43:36;;;;;;;3.58;1.70;;;;;;;5.15;58.13;98356.69;5109406;28;20044;-70
2023/12/21 04:46:04;;;;;;;2.30;1.60;;;;;;;5.15;58.47;98372.47;5109053;28;20044;-70
2023/12/21 04:48:31;;;;;;;2.40;1.70;;;;;;;4.66;58.43;98270.66;5109025;28;20105;-70
2023/12/21 04:50:58;;;;;;;2.40;1.77;;;;;;;5.16;58.72;98367.13;5108674;28;20081;-70
2023/12/21 04:53:25;;;;;;;3.03;1.70;;;;;;;5.17;58.52;98360.09;5108913;28;20101;-69
2023/12/21 04:55:51;;;;;;;2.50;1.63;;;;;;;5.19;58.53;98343.34;5108847;28;20044;-69
2023/12/21 04:58:18;;;;;;;2.90;1.95;;;;;;;5.22;58.52;98337.94;5108601;28;20044;-70
2023/12/21 05:00:50;;;;;;;3.30;1.75;;;;;;;4.58;58.61;98212.44;5108512;28;20040;-70
2023/12/21 05:03:18;;;;;;;2.45;1.67;;;;;;;5.05;58.76;98286.25;5108674;28;20070;-70
2023/12/21 05:05:45;;;;;;;2.78;1.92;;;;;;;5.26;58.97;98310.59;5108436;28;20043;-70
2023/12/21 05:08:12;;;;;;;2.50;1.83;;;;;;;4.79;58.77;98260.41;5108652;28;20238;-70
2023/12/21 05:10:38;;;;;;;2.30;1.50;;;;;;;5.31;58.88;98303.31;5108303;28;20048;-70
2023/12/21 05:13:05;;;;;;;2.50;1.70;;;;;;;5.19;58.84;98280.31;5108048;28;20051;-70
2023/12/21 05:15:32;;;;;;;3.08;1.73;;;;;;;5.36;59.24;98311.81;5108227;28;20289;-70
2023/12/21 05:18:00;;;;;;;3.67;1.80;;;;;;;5.38;59.05;98309.13;5108409;28;20052;-70
2023/12/21 05:20:26;;;;;;;2.97;1.75;;;;;;;5.36;59.37;98324.13;5108696;28;20304;-69
2023/12/21 05:22:53;;;;;;;2.40;1.70;;;;;;;5.41;59.13;98293.19;5108284;28;20055;-70
2023/12/21 05:25:19;;;;;;;2.75;1.75;;;;;;;5.44;59.26;98282.53;5108283;28;20052;-69
2023/12/21 05:27:46;;;;;;;2.20;1.67;;;;;;;5.27;59.44;98243.13;5108256;28;20044;-70
2023/12/21 05:30:13;;;;;;;2.45;1.60;;;;;;;5.44;59.43;98275.50;5108218;28;20280;-70
2023/12/21 05:32:39;;;;;;;2.22;1.60;;;;;;;5.46;59.92;98272.78;5108152;28;20044;-70
2023/12/21 05:35:08;;;;;;;4.05;1.80;;;;;;;5.47;59.75;98273.66;5108077;28;20043;-69
2023/12/21 05:37:35;;;;;;;2.38;1.60;;;;;;;5.48;59.83;98265.69;5108354;28;20304;-70
2023/12/21 05:40:02;;;;;;;2.40;1.70;;;;;;;5.53;59.76;98244.41;5107750;28;20052;-69
2023/12/21 05:42:29;;;;;;;3.95;2.25;;;;;;;5.49;60.04;98262.13;5107848;28;20082;-70
2023/12/21 05:44:55;;;;;;;2.58;1.67;;;;;;;5.54;59.92;98268.00;5108212;28;20093;-69
2023/12/21 05:47:22;;;;;;;2.53;1.73;;;;;;;5.56;59.87;98274.00;5106728;28;20051;-70
2023/12/21 05:49:49;;;;;;;3.00;1.70;;;;;;;5.60;59.93;98259.78;5107824;28;20044;-70
2023/12/21 05:52:17;;;;;;;2.55;1.67;;;;;;;4.48;59.75;98066.88;5107734;28;20051;-70
2023/12/21 05:54:44;;;;;;;2.15;1.50;;;;;;;5.66;59.94;98266.50;5107328;28;20051;-70
2023/12/21 05:57:11;;;;;;;2.33;1.52;;;;;;;5.68;59.91;98254.97;5107355;28;20055;-70
2023/12/21 05:59:38;;;;;;;2.08;1.52;;;;;;;5.71;59.87;98254.81;5107361;28;20082;-70
2023/12/21 06:02:05;;;;;;;2.38;1.60;;;;;;;5.73;60.08;98254.72;5107247;28;20064;-70
2023/12/21 06:04:31;;;;;;;3.05;1.73;;;;;;;5.75;60.02;98271.28;5107261;28;20188;-70
2023/12/21 06:06:58;;;;;;;2.55;1.70;;;;;;;5.76;60.00;98271.19;5107455;28;20193;-70
2023/12/21 06:09:26;;;;;;;2.45;1.60;;;;;;;5.76;60.18;98263.31;5107168;28;20117;-70
2023/12/21 06:11:52;;;;;;;2.42;1.58;;;;;;;5.83;59.88;98305.06;5107630;28;20095;-68
2023/12/21 06:14:19;;;;;;;2.20;1.50;;;;;;;5.82;60.38;98290.19;5107352;28;20054;-68
2023/12/21 06:16:46;;;;;;;2.28;1.40;;;;;;;5.87;60.37;98269.78;5107344;28;20040;-69
2023/12/21 06:19:14;;;;;;;2.30;1.40;;;;;;;5.89;60.33;98299.47;5107585;28;20193;-69
2023/12/21 06:21:41;;;;;;;2.50;1.60;;;;;;;5.90;60.42;98262.56;5107135;28;20352;-69
2023/12/21 06:24:08;;;;;;;2.35;1.50;;;;;;;5.91;60.45;98266.91;5106192;28;20052;-69
2023/12/21 06:26:40;;;;;;;3.22;1.80;;;;;;;5.94;60.51;98292.19;5107394;28;20040;-69
2023/12/21 06:29:07;;;;;;;2.80;1.73;;;;;;;5.52;60.58;98216.44;5106682;28;20177;-69
2023/12/21 06:31:34;;;;;;;2.47;1.67;;;;;;;2.89;60.35;97762.22;5106938;28;20047;-69
2023/12/21 06:34:01;;;;;;;2.20;1.50;;;;;;;5.97;60.48;98274.47;5106699;28;20241;-69
2023/12/21 06:36:27;;;;;;;2.40;1.80;;;;;;;5.98;60.81;98254.28;5106940;28;20043;-69
2023/12/21 06:38:54;;;;;;;2.30;1.50;;;;;;;5.99;60.93;98255.97;5106525;28;20060;-69
2023/12/21 06:41:20;;;;;;;2.38;1.60;;;;;;;6.00;61.11;98250.63;5106794;28;20044;-69
2023/12/21 06:43:48;;;;;;;2.72;1.48;;;;;;;6.02;61.05;98237.38;5106442;28;20063;-69
2023/12/21 06:46:15;;;;;;;2.53;1.65;;;;;;;5.24;61.14;98110.19;5106747;28;20212;-68
2023/12/21 06:48:42;;;;;;;2.22;1.55;;;;;;;6.07;61.19;98230.09;5106730;28;20051;-69
2023/12/21 06:51:09;;;;;;;2.30;1.40;;;;;;;6.09;61.00;98228.22;5105604;28;20351;-69
2023/12/21 06:53:36;;;;;;;2.28;1.50;;;;;;;6.10;61.29;98228.16;5106413;28;20111;-69
2023/12/21 06:56:02;;;;;;;2.45;1.50;;;;;;;6.12;61.43;98221.94;5106540;28;20040;-69
2023/12/21 06:58:29;;;;;;;2.22;1.40;;;;;;;5.91;61.32;98205.56;5105754;28;20063;-69
2023/12/21 07:00:58;;;;;;;2.40;1.50;;;;;;;6.17;61.66;98252.34;5106487;28;20048;-69
2023/12/21 07:03:24;;;;;;;2.25;1.45;;;;;;;6.18;61.88;98237.41;5106410;28;20048;-69
2023/12/21 07:05:51;;;;;;;2.40;1.50;;;;;;;6.17;61.85;98254.97;5105169;28;20082;-68
2023/12/21 07:08:18;;;;;;;2.20;1.45;;;;;;;5.12;62.03;98077.53;5106343;28;20173;-69
2023/12/21 07:10:44;;;;;;;2.38;1.48;;;;;;;6.17;62.39;98241.81;5106343;28;20093;-69
2023/12/21 07:13:11;;;;;;;2.20;1.50;;;;;;;6.17;62.43;98246.22;5106157;28;20040;-69
2023/12/21 07:15:38;;;;;;;2.40;1.70;;;;;;;5.39;62.29;98121.63;5105838;28;20048;-69
2023/12/21 07:18:06;;;;;;;2.35;1.58;;;;;;;6.19;62.41;98250.47;5106224;28;20063;-69
2023/12/21 07:20:33;;;;;;;2.45;1.48;;;;;;;6.21;62.34;98263.53;5106182;28;20055;-69
2023/12/21 07:23:00;;;;;;;2.20;1.50;;;;;;;6.18;62.36;98233.00;5106323;28;20044;-69
2023/12/21 07:25:27;;;;;;;2.30;1.60;;;;;;;6.20;62.25;98230.28;5105211;28;20036;-69
2023/12/21 07:27:53;;;;;;;2.35;1.55;;;;;;;6.23;62.35;98225.69;5105756;28;20039;-69
2023/12/21 07:30:20;;;;;;;2.22;1.50;;;;;;;6.21;62.52;98229.34;5106003;28;20047;-69
2023/12/21 07:32:47;;;;;;;3.15;1.73;;;;;;;6.23;62.47;98246.75;5106304;28;20158;-69
2023/12/21 07:35:15;;;;;;;2.45;1.60;;;;;;;6.23;62.53;98219.56;5105696;28;20044;-69
2023/12/21 07:37:42;;;;;;;2.13;1.45;;;;;;;6.26;62.53;98206.25;5105928;28;20051;-69
2023/12/21 07:40:09;;;;;;;2.40;1.70;;;;;;;6.30;62.37;98211.25;5105355;28;20339;-69
2023/12/21 07:42:36;;;;;;;2.38;1.50;;;;;;;6.33;62.40;98200.56;5105226;28;20220;-68
2023/12/21 07:45:04;;;;;;;2.30;1.50;;;;;;;6.31;62.46;98189.28;5105479;28;20123;-69
2023/12/21 07:47:30;;;;;;;2.42;1.40;;;;;;;6.33;62.42;98194.44;5106124;28;20046;-69
2023/12/21 07:49:57;;;;;;;2.80;1.90;;;;;;;6.37;62.37;98211.75;5105781;28;20044;-69
2023/12/21 07:52:25;;;;;;;2.08;1.40;;;;;;;6.37;62.41;98203.88;5105807;28;20048;-69
2023/12/21 07:54:52;;;;;;;2.90;1.60;;;;;;;6.39;62.36;98191.47;5106098;28;20044;-69
2023/12/21 07:57:18;;;;;;;2.30;1.50;;;;;;;6.39;62.47;98192.31;5104906;28;20330;-69
2023/12/21 07:59:45;;;;;;;2.28;1.50;;;;;;;5.83;62.38;98124.47;5105721;28;20052;-69
2023/12/21 08:02:12;;;;;;;2.10;1.45;;;;;;;6.37;62.47;98172.28;5105502;28;20040;-69
2023/12/21 08:04:39;;;;;;;3.33;1.50;;;;;;;6.38;62.73;98188.00;5105388;28;20090;-69
2023/12/21 08:07:05;;;;;;;2.40;1.58;;;;;;;6.40;62.75;98198.44;5105070;28;20101;-69
2023/12/21 08:09:33;;;;;;;2.30;1.40;;;;;;;6.46;62.76;98171.75;5105341;28;20098;-69
2023/12/21 08:12:00;;;;;;;2.35;1.50;;;;;;;6.45;62.85;98161.31;5105605;28;20055;-69
2023/12/21 08:14:28;;;;;;;2.30;1.40;;;;;;;6.48;63.18;98163.78;5105672;28;20193;-69
2023/12/21 08:16:54;;;;;;;2.40;1.40;;;;;;;6.48;63.91;98162.00;5105286;28;20050;-69
2023/12/21 08:19:22;;;;;;;2.17;1.50;;;;;;;6.47;64.66;98170.81;5105193;28;20144;-69
2023/12/21 08:21:48;;;;;;;2.28;1.52;;;;;;;6.47;64.94;98175.25;5104235;28;20055;-69
2023/12/21 08:24:15;;;;;;;3.20;1.67;;;;;;;6.49;65.08;98152.31;5105254;28;20116;-69
2023/12/21 08:26:44;;;;;;;2.15;1.40;;;;;;;6.48;65.56;98148.84;5104230;28;20040;-69
2023/12/21 08:29:11;;;;;;;2.13;1.30;;;;;;;6.45;66.35;98156.91;5105362;28;20215;-69
2023/12/21 08:31:37;;;;;;;2.10;1.40;;;;;;;6.45;66.56;98141.13;5105350;28;20055;-68
2023/12/21 08:34:04;;;;;;;2.15;1.38;;;;;;;6.28;67.20;98128.94;5105407;28;20074;-68
2023/12/21 08:36:31;;;;;;;2.90;1.60;;;;;;;6.46;66.90;98141.97;5105391;28;20052;-69
2023/12/21 08:38:58;;;;;;;2.47;1.60;;;;;;;6.45;67.46;98156.06;5105186;28;20117;-69
2023/12/21 08:41:26;;;;;;;2.72;1.50;;;;;;;6.43;67.46;98116.66;5105419;28;20036;-69
2023/12/21 08:43:55;;;;;;;2.95;1.83;;;;;;;6.41;67.88;98123.81;5105298;28;20054;-69
2023/12/21 08:46:22;;;;;;;3.10;1.80;;;;;;;6.39;67.75;98097.56;5105475;28;20066;-69
2023/12/21 08:48:49;;;;;;;2.75;1.60;;;;;;;6.38;68.00;98127.47;5109194;28;20044;-69
2023/12/21 08:51:16;;;;;;;3.10;1.80;;;;;;;6.39;68.23;98083.56;5108668;28;20051;-69
2023/12/21 08:53:44;;;;;;;4.88;2.45;;;;;;;6.40;68.39;98080.00;5109127;28;20095;-69
2023/12/21 08:56:10;;;;;;;3.63;1.63;;;;;;;6.37;68.68;98072.28;5109063;28;20051;-69
2023/12/21 08:58:37;;;;;;;2.30;1.65;;;;;;;6.41;68.62;98069.38;5108680;28;20052;-69
2023/12/21 09:01:05;;;;;;;2.50;1.58;;;;;;;6.42;68.51;98044.75;5108852;28;20109;-69
2023/12/21 09:03:32;;;;;;;2.92;1.73;;;;;;;6.43;68.30;98061.41;5108161;28;20093;-68
2023/12/21 09:05:59;;;;;;;2.35;1.60;;;;;;;6.43;68.39;98067.50;5108607;28;20043;-69
2023/12/21 09:08:26;;;;;;;2.70;1.50;;;;;;;6.46;68.68;98060.38;5108215;28;20085;-69
2023/12/21 09:10:53;;;;;;;2.30;1.60;;;;;;;6.48;68.28;98067.25;5108215;28;20044;-69
2023/12/21 09:13:19;;;;;;;2.20;1.40;;;;;;;6.47;68.60;98049.75;5108275;28;20162;-69
2023/12/21 09:15:46;;;;;;;3.22;1.60;;;;;;;6.52;68.15;98055.59;5108333;28;20044;-70
2023/12/21 09:18:14;;;;;;;2.25;1.40;;;;;;;6.51;68.22;98047.78;5107945;28;20043;-69
2023/12/21 09:20:40;;;;;;;2.83;1.45;;;;;;;6.33;67.89;98005.84;5108534;28;20052;-69
2023/12/21 09:23:07;;;;;;;2.50;1.73;;;;;;;6.58;67.96;98041.22;5108203;28;20374;-69
2023/12/21 09:25:34;;;;;;;3.85;1.70;;;;;;;6.55;67.86;98037.00;5108298;28;20055;-69
2023/12/21 09:28:02;;;;;;;2.70;1.70;;;;;;;6.58;67.79;98036.81;5108490;28;20092;-69
2023/12/21 09:30:30;;;;;;;2.40;1.50;;;;;;;6.60;67.74;98034.06;5107817;28;20304;-69
2023/12/21 09:32:59;;;;;;;2.53;1.60;;;;;;;6.63;67.29;98013.69;5107984;28;20067;-69
2023/12/21 09:35:27;;;;;;;2.80;1.98;;;;;;;6.50;67.09;97998.72;5107675;28;20235;-69
2023/12/21 09:37:53;;;;;;;3.75;2.00;;;;;;;6.72;67.00;98004.38;5107982;28;20096;-69
2023/12/21 09:40:22;;;;;;;3.13;1.83;;;;;;;6.77;66.99;97985.66;5106697;28;20043;-69
2023/12/21 09:42:51;;;;;;;2.30;1.67;;;;;;;6.79;66.89;98002.22;5107814;28;20064;-69
2023/12/21 09:45:19;;;;;;;2.20;1.52;;;;;;;6.79;66.84;97991.69;5107874;28;20043;-70
2023/12/21 09:47:48;;;;;;;2.47;1.70;;;;;;;6.77;66.64;97983.03;5107844;28;20235;-69
2023/12/21 09:50:18;;;;;;;2.47;1.65;;;;;;;6.77;66.50;97972.50;5107498;28;20079;-69
2023/12/21 09:52:48;;;;;;;2.85;2.15;;;;;;;6.79;66.52;97962.72;5107668;28;20055;-69
2023/12/21 09:55:16;;;;;;;2.25;1.50;;;;;;;6.81;66.58;97964.34;5107716;28;20071;-69
2023/12/21 09:57:43;;;;;;;2.55;1.92;;;;;;;6.84;66.47;97958.88;5107807;28;20044;-69
2023/12/21 10:00:11;;;;;;;2.17;1.60;;;;;;;6.86;66.33;97951.75;5107440;28;20238;-69
2023/12/21 10:02:38;;;;;;;2.20;1.45;;;;;;;6.91;66.38;97943.56;5107718;28;20267;-69
2023/12/21 10:05:06;;;;;;;2.20;1.40;;;;;;;6.91;66.46;97960.19;5107296;28;20040;-69
2023/12/21 10:07:33;;;;;;;2.42;1.63;;;;;;;6.73;66.42;97914.75;5107503;28;20285;-69
2023/12/21 10:10:01;;;;;;;2.95;2.05;;;;;;;6.94;66.35;97920.50;5107447;28;20177;-69
2023/12/21 10:12:28;;;;;;;2.40;1.70;;;;;;;6.97;66.21;97906.28;5107408;28;20082;-69
2023/12/21 10:14:58;;;;;;;2.35;1.58;;;;;;;6.99;66.20;97902.63;5106960;28;20292;-69
2023/12/21 10:17:25;;;;;;;2.30;1.58;;;;;;;6.98;66.09;97903.56;5107553;28;20055;-69
2023/12/21 10:19:52;;;;;;;3.85;1.80;;;;;;;6.53;66.05;97812.50;5106992;28;20292;-69
2023/12/21 10:22:21;;;;;;;3.85;1.80;;;;;;;6.84;66.01;97873.78;5107195;28;20110;-69
2023/12/21 10:24:49;;;;;;;2.47;1.70;;;;;;;7.01;65.65;97874.41;5106183;28;20039;-69
2023/12/21 10:27:21;;;;;;;2.40;1.70;;;;;;;6.52;65.54;97794.16;5106646;28;20059;-69
2023/12/21 10:29:53;;;;;;;2.95;1.90;;;;;;;7.05;65.44;97862.72;5107077;28;20292;-69
2023/12/21 10:32:19;;;;;;;2.22;1.50;;;;;;;7.07;65.39;97860.81;5106683;28;20207;-69
2023/12/21 10:34:47;;;;;;;2.42;1.60;;;;;;;7.12;65.27;97844.72;5106542;28;20130;-69
2023/12/21 10:37:15;;;;;;;2.45;1.60;;;;;;;7.16;65.15;97848.84;5106766;28;20067;-69
2023/12/21 10:39:42;;;;;;;3.55;1.60;;;;;;;7.12;64.76;97833.34;5105761;28;20044;-69
2023/12/21 10:42:09;;;;;;;13.00;1.70;;;;;;;7.14;64.61;97837.56;5107123;28;20043;-69
2023/12/21 10:44:37;;;;;;;2.30;1.50;;;;;;;7.15;64.72;97831.34;5106497;28;20047;-69
2023/12/21 10:47:04;;;;;;;2.55;1.52;;;;;;;7.17;64.73;97807.53;5105647;28;20035;-69
2023/12/21 10:49:32;;;;;;;2.63;1.58;;;;;;;7.25;64.54;97799.97;5106981;28;20051;-69
2023/12/21 10:51:59;;;;;;;2.08;1.48;;;;;;;7.25;64.10;97807.88;5106603;28;20047;-69
2023/12/21 10:54:28;;;;;;;2.70;1.55;;;;;;;7.16;63.86;97763.69;5106337;28;20040;-69
2023/12/21 10:56:56;;;;;;;2.17;1.30;;;;;;;7.32;63.90;97781.00;5106916;28;20043;-68
2023/12/21 10:59:24;;;;;;;2.30;1.40;;;;;;;7.36;63.35;97772.00;5106529;28;20101;-69
2023/12/21 11:01:52;;;;;;;2.20;1.50;;;;;;;7.38;63.87;97763.97;5106472;28;20032;-69
2023/12/21 11:04:23;;;;;;;2.33;1.45;;;;;;;7.43;63.56;97755.75;5105307;28;20036;-69
2023/12/21 11:06:51;;;;;;;2.33;1.42;;;;;;;7.42;63.54;97760.19;5106477;28;20063;-69
2023/12/21 11:09:19;;;;;;;2.42;1.60;;;;;;;7.47;63.63;97765.16;5105927;28;20044;-69
2023/12/21 11:11:46;;;;;;;2.33;1.70;;;;;;;7.49;63.35;97769.38;5106469;28;20067;-69
2023/12/21 11:14:13;;;;;;;2.08;1.50;;;;;;;7.48;63.39;97751.03;5106383;28;20036;-69
2023/12/21 11:16:45;;;;;;;2.63;1.55;;;;;;;7.49;63.15;97753.56;5106201;28;20044;-69
2023/12/21 11:19:19;;;;;;;2.10;1.50;;;;;;;7.39;62.90;97739.31;5105893;28;20062;-69
2023/12/21 11:21:47;;;;;;;2.30;1.40;;;;;;;7.55;62.80;97733.84;5106388;28;20048;-69
2023/12/21 11:24:21;;;;;;;2.20;1.30;;;;;;;7.59;62.69;97749.34;5105841;28;20093;-69
2023/12/21 11:26:49;;;;;;;;;;;;;;;7.63;62.41;97732.34;5106574;28;20126;-70
2023/12/21 11:29:16;;;;;;;2.10;1.30;;;;;;;7.61;62.57;97705.25;5106076;28;19916;-69
2023/12/21 11:31:42;;;;;;;2.15;1.40;;;;;;;7.67;62.36;97731.19;5106085;28;20044;-70
2023/12/21 11:34:16;;;;;;;2.22;1.60;;;;;;;7.65;62.34;97697.97;5106139;28;20036;-70
2023/12/21 11:36:43;;;;;;;2.10;1.30;;;;;;;7.69;62.28;97696.81;5106296;28;20043;-69
2023/12/21 11:39:13;;;;;;;2.10;1.40;;;;;;;7.70;62.29;97677.41;5105331;28;20336;-70
2023/12/21 11:41:51;;;;;;;2.75;1.65;;;;;;;7.73;62.01;97703.56;5105592;28;20044;-69